Brandywine, MD

1:47 PM EDT on April 18, 2015 (GMT -0400)
Rolling Acres | | Change Station
CLOSE
Current Station
Personal Weather Station
Location: Cheltenham, MD
Elevation: 190 ft
Nearby Weather Stations

Elev 190 ft 38.75 °N, 76.84 °W | Updated 2 seconds ago

Clear
Clear
84.5 °F
Feels Like 82 °F
N
0.0
Wind Variable Wind from ESE
Gusts 1.0 mph

Today
High -- | Low -- °F
--% Chance of Precip.
Yesterday
High -- | Low -- °F
Precip. -- in
6:27 AM 7:46 PM
Waning Crescent, 0% visible
Pressure 30.02 in
Visibility 10.0 miles
Clouds Clear
Heat Index 82 °F
Dew Point 50 °F
Humidity 30%
Rainfall 0.00 in
Snow Depth Not available.
UV 2.7 out of 12
Pollen 11.50 out of 12
Air Quality Not available.
Flu Activity Regional
METAR KADW 181658Z AUTO 04006KT 10SM CLR 24/11 A3000 RMK AO2 SLP164 T02350105

More Conditions Fewer Conditions

Pressure 30.02 in
Visibility 10.0 miles
Clouds Clear
Heat Index 82 °F
Dew Point 50 °F
Humidity 30%
Rainfall 0.00 in
Snow Depth Not available.
UV 2.7 out of 12
Pollen 11.50 out of 12
Air Quality Not available.
Flu Activity Regional
METAR KADW 181658Z AUTO 04006KT 10SM CLR 24/11 A3000 RMK AO2 SLP164 T02350105

More Conditions Fewer Conditions

10-Day Weather Forecast

Almanac

Astronomy

Apr. 18, 2015 Rise Set
Actual Time
Civil Twilight
Nautical Twilight
Astronomical Twilight
Moon
Length of Visible Light
Length of Day
Tomorrow will be .
, % of the Moon is Illuminated

Today's Extremes

State Highs State Lows

Community

WunderPhotos

Upload Photos

1,814,470 photos uploaded!

WunderBlogs® & News

Nearby

Air Quality

  Air Quality AQ Index Pollutant
Not available.

Snow Depth

Station Depth Elevation

Earthquake Activity

City Distance Mag. Time & Date
Minimum magnitude displayed is 2.5.

Coastal Water Temperatures

Place Temperature

Stations

Nearby Weather Stations

Station Location Temp. Windchill Dew Point Humidity Wind Precip. Elev Updated Type